Time;durP1;ratioP1;P1;durP2;ratioP2;P2;SDS_P1;SDS_P2;PMS_P1;PMS_P2;Temp;Humidity;BMP_temperature;BMP_pressure;BME280_temperature;BME280_humidity;BME280_pressure;Samples;Min_cycle;Max_cycle;Signal;HPM_P1;HPM_P2
2021/06/19 00:01:19;;;;;;;0.20;0.20;;;;;;;18.37;100.00;97362.16;5048319;28;20432;-82
2021/06/19 00:03:45;;;;;;;0.30;0.30;;;;;;;18.36;100.00;97360.44;5031155;28;20087;-82
2021/06/19 00:06:10;;;;;;;0.60;0.50;;;;;;;18.34;100.00;97350.75;5031462;28;20029;-82
2021/06/19 00:08:36;;;;;;;0.77;0.60;;;;;;;18.37;100.00;97362.16;5031485;28;20489;-82
2021/06/19 00:11:02;;;;;;;0.60;0.60;;;;;;;18.36;100.00;97351.47;5031407;28;20025;-82
2021/06/19 00:13:28;;;;;;;0.47;0.20;;;;;;;18.23;100.00;97337.41;5031676;28;20064;-82
2021/06/19 00:15:53;;;;;;;0.13;0.13;;;;;;;18.22;100.00;97327.56;5048584;28;20113;-82
2021/06/19 00:18:20;;;;;;;0.75;0.47;;;;;;;18.24;100.00;97331.81;5032170;28;20402;-82
2021/06/19 00:20:45;;;;;;;0.20;0.20;;;;;;;18.46;100.00;97357.69;5048224;28;20113;-82
2021/06/19 00:23:12;;;;;;;0.82;0.43;;;;;;;18.42;100.00;97354.47;5031797;28;20132;-82
2021/06/19 00:25:37;;;;;;;2.80;1.17;;;;;;;18.35;100.00;97347.91;5031571;28;20044;-82
2021/06/19 00:28:03;;;;;;;0.75;0.55;;;;;;;18.37;100.00;97353.16;5047692;28;20025;-82
2021/06/19 00:30:29;;;;;;;1.23;0.52;;;;;;;18.39;100.00;97357.44;5046808;28;20412;-82
2021/06/19 00:32:54;;;;;;;1.45;0.88;;;;;;;18.42;100.00;97357.16;5047563;28;20467;-82
2021/06/19 00:35:20;;;;;;;0.73;0.57;;;;;;;18.45;100.00;97363.28;5047572;28;20061;-82
2021/06/19 00:37:49;;;;;;;0.35;0.25;;;;;;;18.46;100.00;97352.28;5030809;28;20033;-82
2021/06/19 00:40:16;;;;;;;0.30;0.30;;;;;;;18.49;100.00;97364.69;5031184;28;20057;-82
2021/06/19 00:42:51;;;;;;;2.35;0.95;;;;;;;18.36;100.00;97343.34;5030738;28;20037;-82
2021/06/19 00:45:16;;;;;;;0.40;0.40;;;;;;;18.40;100.00;97344.75;5030775;28;20036;-82
2021/06/19 00:47:42;;;;;;;1.25;0.60;;;;;;;18.45;100.00;97352.44;5030666;28;20041;-82
2021/06/19 00:50:08;;;;;;;0.85;0.45;;;;;;;18.48;100.00;97347.59;5047252;28;20404;-82
2021/06/19 00:52:34;;;;;;;1.45;0.35;;;;;;;18.47;100.00;97340.44;5046924;28;20555;-81
2021/06/19 00:54:59;;;;;;;0.98;0.60;;;;;;;18.51;100.00;97355.44;5030274;28;20022;-82
2021/06/19 00:57:25;;;;;;;0.38;0.38;;;;;;;18.32;100.00;97328.41;5030332;28;20571;-81
2021/06/19 00:59:51;;;;;;;0.30;0.30;;;;;;;18.36;100.00;97321.69;5029715;28;20033;-81
2021/06/19 01:02:16;;;;;;;0.10;0.10;;;;;;;18.52;100.00;97343.59;5030057;28;20130;-81
2021/06/19 01:04:42;;;;;;;0.45;0.45;;;;;;;18.56;100.00;97350.44;5046411;28;20029;-81
2021/06/19 01:07:07;;;;;;;1.02;0.90;;;;;;;18.33;100.00;97324.69;5029898;28;20033;-81
2021/06/19 01:09:33;;;;;;;1.17;0.50;;;;;;;18.43;100.00;97345.31;5029803;28;20033;-82
2021/06/19 01:11:59;;;;;;;1.65;0.85;;;;;;;18.41;100.00;97341.03;5030869;28;20036;-82
2021/06/19 01:14:25;;;;;;;0.63;0.63;;;;;;;18.34;100.00;97329.09;5029494;28;20436;-81
2021/06/19 01:16:51;;;;;;;0.75;0.52;;;;;;;18.47;100.00;97351.28;5029455;28;20029;-79
2021/06/19 01:19:17;;;;;;;1.17;0.75;;;;;;;18.55;100.00;97356.84;5029792;28;20499;-81
2021/06/19 01:21:43;;;;;;;0.90;0.63;;;;;;;18.46;100.00;97333.31;5046293;28;20068;-81
2021/06/19 01:24:14;;;;;;;0.90;0.52;;;;;;;18.23;100.00;97288.66;5045899;28;20068;-81
2021/06/19 01:26:40;;;;;;;3.45;2.05;;;;;;;18.51;100.00;97338.34;5045866;28;20075;-81
2021/06/19 01:29:05;;;;;;;1.00;0.45;;;;;;;18.59;100.00;97357.41;5029203;28;20405;-81
2021/06/19 01:31:32;;;;;;;0.20;0.20;;;;;;;18.38;100.00;97325.94;5045993;28;20029;-81
2021/06/19 01:33:58;;;;;;;0.45;0.40;;;;;;;18.22;100.00;97295.06;5029319;28;20108;-81
2021/06/19 01:36:23;;;;;;;0.30;0.30;;;;;;;18.40;100.00;97339.31;5046188;28;20158;-81
2021/06/19 01:38:51;;;;;;;0.30;0.30;;;;;;;18.37;100.00;97348.59;5045900;28;20053;-81
2021/06/19 01:41:24;;;;;;;1.17;1.02;;;;;;;18.33;100.00;97338.25;5029211;28;20051;-81
2021/06/19 01:44:04;;;;;;;0.30;0.30;;;;;;;18.34;100.00;97339.94;5045705;28;20030;-81
2021/06/19 01:46:30;;;;;;;1.77;1.00;;;;;;;18.47;100.00;97354.00;5029552;28;20037;-81
2021/06/19 01:48:56;;;;;;;0.95;0.20;;;;;;;18.42;100.00;97342.75;5029472;28;20026;-81
2021/06/19 01:51:22;;;;;;;0.52;0.50;;;;;;;18.22;100.00;97320.31;5029439;28;20052;-81
2021/06/19 01:53:48;;;;;;;0.50;0.40;;;;;;;18.10;100.00;97304.38;5030439;28;20072;-81
2021/06/19 01:56:14;;;;;;;0.63;0.55;;;;;;;18.39;100.00;97359.31;5045904;28;20037;-81
2021/06/19 01:58:40;;;;;;;0.32;0.32;;;;;;;18.14;100.00;97317.50;5045846;28;20029;-81
2021/06/19 02:01:07;;;;;;;7.43;0.40;;;;;;;18.36;100.00;97352.31;5029041;28;20116;-81
2021/06/19 02:03:33;;;;;;;1.05;0.43;;;;;;;18.40;100.00;97356.44;5029188;28;20037;-81
2021/06/19 02:05:59;;;;;;;0.40;0.40;;;;;;;18.28;100.00;97324.25;5045522;28;20485;-82
2021/06/19 02:08:25;;;;;;;0.17;0.17;;;;;;;18.22;100.00;97308.63;5029155;28;20029;-81
2021/06/19 02:10:50;;;;;;;0.70;0.50;;;;;;;18.27;100.00;97322.59;5045653;28;20025;-81
2021/06/19 02:13:16;;;;;;;2.63;1.15;;;;;;;18.38;100.00;97325.94;5029400;28;20481;-81
2021/06/19 02:15:44;;;;;;;0.45;0.45;;;;;;;18.49;100.00;97324.91;5029193;28;20029;-81
2021/06/19 02:18:10;;;;;;;0.60;0.60;;;;;;;18.39;100.00;97316.81;5029061;28;20026;-81
2021/06/19 02:20:36;;;;;;;0.45;0.45;;;;;;;18.36;100.00;97305.44;5028955;28;20559;-81
2021/06/19 02:23:02;;;;;;;0.60;0.40;;;;;;;18.49;100.00;97326.78;5045560;28;20432;-81
2021/06/19 02:25:29;;;;;;;0.10;0.10;;;;;;;18.46;100.00;97322.47;5045363;28;20076;-81
2021/06/19 02:28:03;;;;;;;1.88;0.20;;;;;;;18.30;100.00;97303.31;5045490;28;20155;-81
2021/06/19 02:30:31;;;;;;;0.35;0.35;;;;;;;18.29;100.00;97297.06;5029030;28;20022;-81
2021/06/19 02:32:57;;;;;;;0.88;0.47;;;;;;;18.08;100.00;97268.50;5045410;28;20029;-81
2021/06/19 02:35:25;;;;;;;0.32;0.32;;;;;;;18.11;100.00;97281.72;5029065;28;20028;-81
2021/06/19 02:37:51;;;;;;;0.20;0.20;;;;;;;18.14;100.00;97301.25;5028761;28;20022;-81
2021/06/19 02:40:16;;;;;;;0.25;0.25;;;;;;;17.86;100.00;97259.75;5028625;28;20050;-81
2021/06/19 02:42:42;;;;;;;0.30;0.30;;;;;;;18.11;100.00;97300.69;5045614;28;20491;-81
2021/06/19 02:45:12;;;;;;;0.68;0.50;;;;;;;18.26;100.00;97334.41;5045180;28;20103;-81
2021/06/19 02:47:47;;;;;;;1.17;0.95;;;;;;;18.14;100.00;97322.91;5029304;28;20017;-81
2021/06/19 02:50:14;;;;;;;0.45;0.40;;;;;;;17.98;100.00;97287.47;5045372;28;20044;-81
2021/06/19 02:52:43;;;;;;;2.55;0.77;;;;;;;18.03;100.00;97303.25;5028633;28;20017;-81
2021/06/19 02:55:23;;;;;;;0.45;0.35;;;;;;;18.18;100.00;97326.19;5031659;28;20025;-82
2021/06/19 02:57:49;;;;;;;0.43;0.22;;;;;;;18.13;100.00;97318.47;5031563;28;20396;-81
2021/06/19 03:00:16;;;;;;;0.60;0.60;;;;;;;18.10;100.00;97312.50;5031274;28;20025;-81
2021/06/19 03:02:42;;;;;;;2.10;1.27;;;;;;;18.19;100.00;97330.56;5048226;28;20025;-81
2021/06/19 03:05:10;;;;;;;0.40;0.40;;;;;;;18.25;100.00;97335.41;5031023;28;20222;-81
2021/06/19 03:07:36;;;;;;;1.20;0.63;;;;;;;18.23;100.00;97323.88;5031513;28;20021;-81
2021/06/19 03:10:04;;;;;;;0.17;0.17;;;;;;;18.26;100.00;97320.88;5031119;28;20477;-81
2021/06/19 03:12:29;;;;;;;0.70;0.70;;;;;;;18.27;100.00;97312.56;5048095;28;20028;-81
2021/06/19 03:14:55;;;;;;;1.30;0.68;;;;;;;18.20;100.00;97297.09;5047981;28;20017;-81
2021/06/19 03:17:22;;;;;;;0.40;0.40;;;;;;;18.39;100.00;97330.34;5048301;28;20029;-82
2021/06/19 03:19:47;;;;;;;0.95;0.73;;;;;;;18.23;100.00;97300.34;5031892;28;20029;-82
2021/06/19 03:22:13;;;;;;;0.55;0.55;;;;;;;18.46;100.00;97332.50;5031766;28;20477;-82
2021/06/19 03:24:43;;;;;;;0.50;0.50;;;;;;;18.23;100.00;97286.81;5031821;28;20060;-82
2021/06/19 03:27:10;;;;;;;1.88;1.23;;;;;;;18.42;100.00;97327.38;5031724;28;20030;-82
2021/06/19 03:29:36;;;;;;;1.63;0.80;;;;;;;18.29;100.00;97299.75;5031927;28;20083;-82
2021/06/19 03:32:03;;;;;;;0.38;0.38;;;;;;;18.26;100.00;97288.38;5031635;28;20091;-82
2021/06/19 03:34:29;;;;;;;0.63;0.63;;;;;;;18.26;100.00;97291.06;5031658;28;20056;-82
2021/06/19 03:36:59;;;;;;;2.92;0.95;;;;;;;18.38;100.00;97325.09;5031559;28;20390;-82
2021/06/19 03:39:28;;;;;;;1.65;0.38;;;;;;;18.33;100.00;97316.56;5047431;28;20409;-82
2021/06/19 03:41:54;;;;;;;0.98;0.73;;;;;;;18.30;100.00;97316.88;5047955;28;20026;-81
2021/06/19 03:44:24;;;;;;;2.10;0.95;;;;;;;18.31;100.00;97302.31;5047508;28;20083;-82
2021/06/19 03:46:50;;;;;;;1.27;0.45;;;;;;;18.40;100.00;97310.41;5030964;28;20029;-82
2021/06/19 03:49:34;;;;;;;0.32;0.32;;;;;;;18.67;100.00;97335.84;5047720;28;20033;-82
2021/06/19 03:51:59;;;;;;;0.20;0.20;;;;;;;18.63;100.00;97310.03;5047678;28;20056;-82
2021/06/19 03:54:25;;;;;;;0.57;0.57;;;;;;;18.87;100.00;97319.31;5031058;28;20030;-82
2021/06/19 03:56:50;;;;;;;0.47;0.38;;;;;;;19.09;100.00;97333.44;5047608;28;20037;-82
2021/06/19 03:59:16;;;;;;;1.17;0.88;;;;;;;19.05;100.00;97310.34;5047226;28;20044;-82
2021/06/19 04:01:41;;;;;;;0.47;0.40;;;;;;;19.18;100.00;97316.25;5031021;28;20028;-82
2021/06/19 04:04:07;;;;;;;0.30;0.20;;;;;;;19.24;100.00;97321.06;5047137;28;20044;-82
2021/06/19 04:06:32;;;;;;;1.08;0.75;;;;;;;19.46;100.00;97331.50;5047546;28;20025;-82
2021/06/19 04:08:58;;;;;;;0.80;0.77;;;;;;;19.58;100.00;97316.69;5030669;28;20044;-82
2021/06/19 04:11:24;;;;;;;0.30;0.30;;;;;;;19.79;100.00;97311.75;5030489;28;20056;-82
2021/06/19 04:13:49;;;;;;;0.47;0.25;;;;;;;19.93;100.00;97296.78;5030887;28;20029;-82
2021/06/19 04:16:15;;;;;;;0.93;0.60;;;;;;;19.94;100.00;97287.59;5030063;28;20472;-82
2021/06/19 04:18:41;;;;;;;0.30;0.30;;;;;;;20.36;100.00;97329.34;5030225;28;20033;-82
2021/06/19 04:21:07;;;;;;;0.50;0.50;;;;;;;20.24;100.00;97318.88;5029945;28;20033;-82
2021/06/19 04:23:33;;;;;;;0.40;0.30;;;;;;;20.15;100.00;97293.50;5030294;28;20029;-82
2021/06/19 04:26:00;;;;;;;0.55;0.45;;;;;;;20.22;100.00;97315.44;5030183;28;20091;-82
2021/06/19 04:28:26;;;;;;;2.03;0.85;;;;;;;20.25;100.00;97320.56;5046326;28;20025;-82
2021/06/19 04:30:53;;;;;;;0.75;0.75;;;;;;;20.09;100.00;97293.31;5031259;28;20389;-82
2021/06/19 04:33:19;;;;;;;0.43;0.43;;;;;;;20.21;100.00;97311.03;5029903;28;20075;-81
2021/06/19 04:35:45;;;;;;;1.48;1.10;;;;;;;20.07;100.00;97306.19;5046521;28;20029;-80
2021/06/19 04:38:10;;;;;;;0.35;0.35;;;;;;;19.98;100.00;97300.72;5047134;28;20064;-79
2021/06/19 04:40:42;;;;;;;1.38;1.05;;;;;;;19.97;100.00;97309.00;5031020;28;20045;-79
2021/06/19 04:43:10;;;;;;;0.50;0.50;;;;;;;19.76;100.00;97275.94;5045750;28;20072;-79
2021/06/19 04:45:36;;;;;;;0.85;0.60;;;;;;;20.03;100.00;97308.34;5030058;28;20033;-80
2021/06/19 04:48:04;;;;;;;0.60;0.60;;;;;;;20.05;100.00;97314.50;5029811;28;20400;-79
2021/06/19 04:50:34;;;;;;;0.60;0.60;;;;;;;20.24;100.00;97310.72;5030337;28;20025;-79
2021/06/19 04:53:01;;;;;;;0.40;0.40;;;;;;;20.77;100.00;97311.34;5030039;28;20037;-78
2021/06/19 04:55:28;;;;;;;0.47;0.38;;;;;;;21.91;100.00;97318.75;5030605;28;20484;-82
2021/06/19 04:57:56;;;;;;;1.58;1.20;;;;;;;23.79;87.45;97324.16;5047513;28;20513;-78
2021/06/19 05:00:24;;;;;;;2.85;2.63;;;;;;;25.85;75.55;97314.91;5027289;28;20044;-84
2021/06/19 05:02:49;;;;;;;4.20;1.05;;;;;;;27.96;67.25;97339.88;5026780;28;20107;-85
2021/06/19 05:05:15;;;;;;;7.07;5.10;;;;;;;29.48;59.74;97342.28;5026727;28;20064;-86
2021/06/19 05:07:41;;;;;;;1.45;1.17;;;;;;;28.93;59.72;97342.88;5027829;28;20057;-79
2021/06/19 05:10:08;;;;;;;3.22;1.38;;;;;;;28.05;62.78;97360.66;5028710;28;20091;-79
2021/06/19 05:12:34;;;;;;;0.85;0.85;;;;;;;28.25;63.03;97338.66;5027371;28;20032;-79
2021/06/19 05:15:01;;;;;;;0.70;0.65;;;;;;;29.63;58.63;97365.97;5043976;28;20021;-79
2021/06/19 05:17:27;;;;;;;4.03;1.48;;;;;;;29.96;56.13;97358.41;5043282;28;20053;-80
2021/06/19 05:19:54;;;;;;;3.38;2.08;;;;;;;29.78;53.64;97330.69;5045096;28;20386;-80
2021/06/19 05:22:22;;;;;;;11.68;3.75;;;;;;;30.19;53.99;97375.22;5030474;28;20541;-78
2021/06/19 05:24:47;;;;;;;1.13;1.02;;;;;;;31.60;51.07;97376.28;5045459;28;20110;-78
2021/06/19 05:27:13;;;;;;;1.20;1.10;;;;;;;33.22;47.16;97375.97;5044898;28;20079;-78
2021/06/19 05:29:38;;;;;;;1.55;0.90;;;;;;;33.84;43.62;97373.47;5044460;28;20445;-78
2021/06/19 05:32:05;;;;;;;0.73;0.63;;;;;;;34.26;43.53;97374.88;5027543;28;20041;-78
2021/06/19 05:34:30;;;;;;;0.52;0.47;;;;;;;35.35;41.20;97392.88;5043324;28;20029;-80
2021/06/19 05:36:56;;;;;;;0.40;0.20;;;;;;;35.85;38.22;97388.03;5026956;28;20036;-79
2021/06/19 05:39:21;;;;;;;0.70;0.70;;;;;;;34.58;40.89;97389.09;5026651;28;20158;-80
2021/06/19 05:41:47;;;;;;;0.52;0.50;;;;;;;33.49;43.37;97388.22;5028152;28;20044;-79
2021/06/19 05:44:12;;;;;;;1.00;0.55;;;;;;;32.02;46.05;97380.00;5027486;28;20090;-80
2021/06/19 05:46:38;;;;;;;0.77;0.77;;;;;;;33.14;43.56;97384.63;5029205;28;20044;-80
2021/06/19 05:49:05;;;;;;;0.65;0.57;;;;;;;34.20;41.82;97370.31;5044606;28;20116;-79
2021/06/19 05:51:31;;;;;;;1.70;0.45;;;;;;;34.20;42.01;97384.22;5044031;28;20034;-78
2021/06/19 05:53:56;;;;;;;0.38;0.38;;;;;;;35.06;40.02;97399.66;5026663;28;20320;-77
2021/06/19 05:56:22;;;;;;;0.55;0.55;;;;;;;34.30;41.53;97385.22;5027833;28;20108;-79
2021/06/19 05:58:47;;;;;;;0.60;0.60;;;;;;;35.83;38.53;97406.13;5027861;28;20187;-78
2021/06/19 06:01:13;;;;;;;0.38;0.38;;;;;;;37.60;36.38;97400.34;5032196;28;20465;-78
2021/06/19 06:03:39;;;;;;;0.35;0.32;;;;;;;38.49;34.41;97383.41;5029627;28;20037;-80
2021/06/19 06:06:05;;;;;;;0.77;0.57;;;;;;;38.29;33.52;97388.94;5027734;28;20099;-80
2021/06/19 06:08:30;;;;;;;0.57;0.50;;;;;;;36.90;36.05;97400.63;5027484;28;20030;-79
2021/06/19 06:10:56;;;;;;;0.28;0.28;;;;;;;37.51;34.96;97388.03;5029781;28;20948;-79
2021/06/19 06:13:21;;;;;;;0.30;0.30;;;;;;;37.02;35.95;97376.22;5037050;28;20026;-77
2021/06/19 06:15:47;;;;;;;0.38;0.20;;;;;;;38.88;33.76;97384.63;5030940;28;20453;-78
2021/06/19 06:18:13;;;;;;;0.20;0.20;;;;;;;39.92;31.86;97397.09;5031541;28;20034;-78
2021/06/19 06:20:38;;;;;;;0.30;0.30;;;;;;;40.89;31.57;97409.47;5037309;28;20021;-79
2021/06/19 06:23:04;;;;;;;0.88;0.50;;;;;;;41.78;29.75;97383.72;5052899;28;20025;-78
2021/06/19 06:25:29;;;;;;;0.20;0.20;;;;;;;41.62;29.34;97404.69;5055352;28;20504;-80
2021/06/19 06:27:55;;;;;;;0.47;0.47;;;;;;;41.03;29.36;97388.91;5033834;28;20052;-78
2021/06/19 06:30:21;;;;;;;0.22;0.20;;;;;;;41.06;28.43;97385.53;5050329;28;20029;-79
2021/06/19 06:32:47;;;;;;;0.20;0.20;;;;;;;41.08;28.47;97380.44;5035720;28;20025;-80
2021/06/19 06:35:13;;;;;;;4.57;1.45;;;;;;;41.75;28.18;97380.66;5051605;28;20051;-79
2021/06/19 06:37:39;;;;;;;0.73;0.73;;;;;;;41.89;27.60;97390.91;5038532;28;20036;-79
2021/06/19 06:40:07;;;;;;;0.68;0.30;;;;;;;40.58;28.05;97392.88;5037166;28;20087;-79
2021/06/19 06:42:32;;;;;;;2.58;1.52;;;;;;;38.66;30.57;97377.59;5052155;28;20037;-79
2021/06/19 06:44:58;;;;;;;0.57;0.57;;;;;;;38.37;32.79;97372.50;5050473;28;20025;-79
2021/06/19 06:47:23;;;;;;;1.05;0.68;;;;;;;39.21;30.89;97391.59;5052353;28;20017;-79
2021/06/19 06:49:49;;;;;;;2.58;1.48;;;;;;;38.69;31.19;97363.88;5034457;28;20036;-79
2021/06/19 06:52:14;;;;;;;0.73;0.60;;;;;;;38.56;32.58;97384.00;5050900;28;20037;-79
2021/06/19 06:54:40;;;;;;;0.20;0.20;;;;;;;38.84;29.16;97361.13;5034869;28;20018;-79
2021/06/19 06:57:09;;;;;;;0.20;0.20;;;;;;;38.82;29.97;97356.94;5051745;28;20032;-79
2021/06/19 06:59:39;;;;;;;0.10;0.10;;;;;;;38.45;31.66;97371.13;5037174;28;20040;-79
2021/06/19 07:02:05;;;;;;;0.45;0.43;;;;;;;38.81;32.02;97372.88;5030434;28;20120;-82
2021/06/19 07:04:30;;;;;;;0.32;0.32;;;;;;;37.88;31.05;97357.19;5046656;28;20112;-82
2021/06/19 07:06:56;;;;;;;0.65;0.30;;;;;;;37.67;30.99;97325.56;5029404;28;20036;-82
2021/06/19 07:09:21;;;;;;;0.30;0.30;;;;;;;38.08;31.51;97314.53;5046574;28;20045;-82
2021/06/19 07:11:47;;;;;;;0.40;0.38;;;;;;;37.68;31.50;97357.97;5030721;28;20025;-82
2021/06/19 07:14:12;;;;;;;0.40;0.40;;;;;;;38.45;32.35;97351.56;5030066;28;20035;-82
2021/06/19 07:16:38;;;;;;;0.28;0.28;;;;;;;39.35;31.02;97345.13;5030459;28;20033;-82
2021/06/19 07:19:04;;;;;;;0.40;0.40;;;;;;;40.44;30.03;97358.16;5030721;28;20033;-82
2021/06/19 07:21:30;;;;;;;0.65;0.30;;;;;;;41.01;28.82;97348.22;5048461;28;20084;-80
2021/06/19 07:23:56;;;;;;;0.20;0.20;;;;;;;41.17;29.16;97363.78;5048337;28;20033;-78
2021/06/19 07:26:21;;;;;;;3.88;2.95;;;;;;;40.40;28.90;97339.38;5032460;28;20471;-81
2021/06/19 07:28:47;;;;;;;6.50;3.58;;;;;;;39.90;30.34;97343.28;5032264;28;20091;-79
2021/06/19 07:31:14;;;;;;;5.97;2.92;;;;;;;39.69;30.22;97342.53;5032167;28;20029;-78
2021/06/19 07:33:40;;;;;;;3.22;2.90;;;;;;;39.62;29.57;97332.72;5031727;28;20061;-79
2021/06/19 07:36:06;;;;;;;3.70;2.80;;;;;;;39.32;29.87;97334.47;5048304;28;20029;-79
2021/06/19 07:38:33;;;;;;;7.75;2.40;;;;;;;39.87;28.68;97319.47;5048697;28;20151;-79
2021/06/19 07:40:59;;;;;;;4.00;2.45;;;;;;;40.37;29.18;97345.56;5048603;28;20033;-79
2021/06/19 07:43:25;;;;;;;2.20;2.00;;;;;;;39.21;27.60;97304.81;5031571;28;20033;-79
2021/06/19 07:45:51;;;;;;;4.28;2.20;;;;;;;38.35;29.97;97304.00;5048309;28;20091;-79
2021/06/19 07:48:17;;;;;;;3.40;2.60;;;;;;;39.24;29.45;97323.88;5048306;28;20065;-79
2021/06/19 07:50:44;;;;;;;3.20;2.70;;;;;;;39.93;28.99;97318.31;5048522;28;20060;-79
2021/06/19 07:53:09;;;;;;;2.90;2.60;;;;;;;39.61;29.48;97331.03;5031444;28;20511;-79
2021/06/19 07:55:35;;;;;;;7.10;2.42;;;;;;;39.48;30.23;97338.09;5047721;28;20104;-80
2021/06/19 07:58:00;;;;;;;5.65;2.45;;;;;;;39.50;28.56;97319.88;5031277;28;20029;-79
2021/06/19 08:00:29;;;;;;;3.67;2.10;;;;;;;40.22;27.98;97326.88;5031485;28;20033;-79
2021/06/19 08:02:54;;;;;;;3.03;2.08;;;;;;;40.59;27.51;97309.53;5032636;28;20408;-77
2021/06/19 08:05:20;;;;;;;2.90;2.17;;;;;;;40.56;26.02;97302.53;5047726;28;20033;-77
2021/06/19 08:07:46;;;;;;;4.35;1.70;;;;;;;40.92;26.00;97307.84;5032527;28;20075;-79
2021/06/19 08:10:11;;;;;;;2.63;1.50;;;;;;;40.78;22.29;97290.84;5032163;28;20447;-80
2021/06/19 08:12:38;;;;;;;10.45;2.53;;;;;;;41.57;23.91;97300.75;5047213;28;20075;-78
2021/06/19 08:15:05;;;;;;;1.77;1.67;;;;;;;41.02;23.25;97280.53;5047465;28;20045;-80
2021/06/19 08:17:30;;;;;;;9.63;3.72;;;;;;;41.23;24.81;97308.41;5030835;28;20030;-79
2021/06/19 08:19:56;;;;;;;6.70;1.98;;;;;;;41.55;24.42;97308.63;5047435;28;20036;-77
2021/06/19 08:22:21;;;;;;;6.75;2.03;;;;;;;41.99;25.79;97300.81;5031142;28;20087;-78
2021/06/19 08:24:47;;;;;;;5.00;1.90;;;;;;;41.51;24.64;97296.31;5046990;28;20040;-80
2021/06/19 08:27:13;;;;;;;2.55;1.60;;;;;;;41.54;26.60;97316.22;5029549;28;20033;-84
2021/06/19 08:29:39;;;;;;;1.90;1.70;;;;;;;38.26;27.20;97308.44;5046591;28;20552;-85
2021/06/19 08:32:08;;;;;;;6.60;2.25;;;;;;;39.51;27.94;97292.69;5030688;28;20184;-78
2021/06/19 08:34:34;;;;;;;6.97;2.60;;;;;;;39.95;27.29;97304.88;5046646;28;20026;-79
2021/06/19 08:37:00;;;;;;;3.15;2.00;;;;;;;39.99;27.50;97300.34;5032413;28;20045;-79
2021/06/19 08:39:25;;;;;;;2.28;2.00;;;;;;;39.87;27.92;97302.66;5036631;28;20057;-80
2021/06/19 08:41:55;;;;;;;6.13;1.80;;;;;;;39.17;27.53;97306.50;5051634;28;20111;-79
2021/06/19 08:44:22;;;;;;;4.30;2.08;;;;;;;39.76;27.30;97305.78;5054574;28;20480;-79
2021/06/19 08:46:50;;;;;;;3.88;1.75;;;;;;;40.01;26.62;97294.47;5039206;28;20037;-79
2021/06/19 08:49:16;;;;;;;8.00;2.75;;;;;;;40.76;27.81;97281.91;5061463;28;20110;-79
2021/06/19 08:51:42;;;;;;;1.92;1.77;;;;;;;41.29;24.27;97305.25;5061640;28;20030;-80
2021/06/19 08:54:08;;;;;;;3.03;1.45;;;;;;;40.60;25.13;97283.16;5045952;28;20018;-88
2021/06/19 08:56:33;;;;;;;4.72;1.45;;;;;;;41.34;24.47;97293.13;5030353;28;20040;-89
2021/06/19 08:59:01;;;;;;;4.15;1.40;;;;;;;42.64;23.21;97267.22;5029686;28;20076;-89
2021/06/19 09:01:27;;;;;;;2.17;1.65;;;;;;;42.24;23.75;97287.53;5030277;28;20045;-89
2021/06/19 09:03:53;;;;;;;3.33;1.80;;;;;;;40.45;25.45;97292.50;5046146;28;20037;-88
2021/06/19 09:06:27;;;;;;;2.83;1.80;;;;;;;40.11;24.52;97262.75;5029473;28;20025;-84
2021/06/19 09:09:10;;;;;;;4.78;1.80;;;;;;;41.23;25.11;97289.56;5041868;28;20513;-85
2021/06/19 09:11:40;;;;;;;2.08;1.73;;;;;;;41.58;24.31;97288.38;5028241;28;20095;-86
2021/06/19 09:14:08;;;;;;;1.55;1.45;;;;;;;42.22;22.60;97265.31;5045285;28;20091;-86
2021/06/19 09:16:35;;;;;;;2.17;1.83;;;;;;;41.76;23.29;97255.81;5028746;28;20040;-86
2021/06/19 09:19:01;;;;;;;4.03;1.60;;;;;;;41.13;23.74;97270.88;5028427;28;20025;-86
2021/06/19 09:21:33;;;;;;;3.25;1.65;;;;;;;41.53;24.54;97286.44;5028998;28;20040;-88
2021/06/19 09:23:59;;;;;;;1.73;1.52;;;;;;;41.26;25.47;97276.91;5029614;28;20064;-88
2021/06/19 09:26:31;;;;;;;3.08;1.63;;;;;;;40.39;25.52;97284.44;5040866;28;20044;-84
2021/06/19 09:29:05;;;;;;;3.30;1.88;;;;;;;41.18;24.58;97274.75;5028986;28;20052;-86
2021/06/19 09:31:41;;;;;;;3.17;1.88;;;;;;;42.11;23.84;97275.88;5027895;28;20033;-86
2021/06/19 09:34:26;;;;;;;3.80;1.77;;;;;;;41.13;24.86;97269.22;5043871;28;20069;-80
2021/06/19 09:36:54;;;;;;;4.65;1.70;;;;;;;40.90;25.48;97271.66;5029555;28;20033;-78
2021/06/19 09:39:29;;;;;;;5.97;1.73;;;;;;;42.09;24.05;97280.94;5046260;28;20536;-79
2021/06/19 09:41:57;;;;;;;4.40;2.00;;;;;;;41.24;25.24;97259.53;5030652;28;20412;-80
2021/06/19 09:44:54;;;;;;;4.97;2.35;;;;;;;40.56;25.68;97254.84;5030191;28;20072;-80
2021/06/19 09:47:21;;;;;;;1.90;1.58;;;;;;;41.16;25.69;97257.38;5007703;28;20042;-80
2021/06/19 09:49:48;;;;;;;3.03;1.40;;;;;;;41.66;24.56;97265.22;5047588;28;20029;-80
2021/06/19 09:52:15;;;;;;;4.25;1.50;;;;;;;40.75;25.16;97237.28;5030608;28;20091;-80
2021/06/19 09:54:43;;;;;;;4.63;1.60;;;;;;;41.54;25.51;97262.84;5047311;28;20083;-79
2021/06/19 09:57:18;;;;;;;6.57;1.70;;;;;;;40.90;24.11;97243.56;5030811;28;20535;-78
2021/06/19 09:59:43;;;;;;;2.10;1.77;;;;;;;41.86;22.68;97231.25;5030554;28;20092;-78
2021/06/19 10:02:21;;;;;;;1.40;1.30;;;;;;;41.98;24.64;97223.19;5031888;28;20056;-78
2021/06/19 10:04:51;;;;;;;2.72;1.90;;;;;;;42.29;24.17;97242.44;5051537;28;20029;-79
2021/06/19 10:07:18;;;;;;;4.65;2.30;;;;;;;42.29;23.89;97245.25;5034713;28;20029;-78
2021/06/19 10:09:50;;;;;;;2.60;2.00;;;;;;;42.47;23.86;97236.78;5051296;28;20087;-77
2021/06/19 10:12:21;;;;;;;3.13;1.83;;;;;;;42.13;24.66;97239.00;5034878;28;20415;-77
2021/06/19 10:14:52;;;;;;;3.25;1.63;;;;;;;41.86;24.14;97219.16;5051215;28;20025;-80
2021/06/19 10:17:22;;;;;;;1.60;1.50;;;;;;;38.82;26.43;97206.69;5050907;28;20477;-79
2021/06/19 10:19:47;;;;;;;1.60;1.50;;;;;;;37.29;28.64;97219.81;5051339;28;20045;-79
2021/06/19 10:22:14;;;;;;;2.15;1.75;;;;;;;37.82;28.67;97219.44;5034302;28;20064;-79
2021/06/19 10:24:43;;;;;;;4.47;1.83;;;;;;;38.52;28.58;97222.63;5050980;28;20029;-78
2021/06/19 10:27:08;;;;;;;2.22;1.55;;;;;;;39.76;28.54;97216.97;5050360;28;20496;-77
2021/06/19 10:29:35;;;;;;;2.80;1.55;;;;;;;39.81;25.58;97208.53;5034003;28;20037;-78
2021/06/19 10:32:01;;;;;;;1.70;1.60;;;;;;;40.33;26.62;97207.06;5051292;28;20521;-78
2021/06/19 10:34:29;;;;;;;2.85;1.50;;;;;;;39.50;27.64;97219.03;5050489;28;20401;-78
2021/06/19 10:37:07;;;;;;;3.13;1.40;;;;;;;38.75;28.50;97219.22;5050783;28;20465;-78
2021/06/19 10:39:43;;;;;;;3.80;1.92;;;;;;;39.41;27.60;97222.75;5033446;28;20412;-78
2021/06/19 10:42:29;;;;;;;1.60;1.50;;;;;;;39.20;25.92;97201.50;5033808;28;20093;-78
2021/06/19 10:44:54;;;;;;;13.13;1.95;;;;;;;38.48;27.48;97200.00;5033467;28;20038;-78
2021/06/19 10:47:22;;;;;;;2.25;1.52;;;;;;;39.26;28.18;97194.78;5034598;28;20037;-79
2021/06/19 10:49:49;;;;;;;7.20;1.67;;;;;;;39.50;27.61;97198.59;5050114;28;20540;-79
2021/06/19 10:52:35;;;;;;;1.90;1.77;;;;;;;38.89;27.26;97184.81;5033451;28;20037;-80
2021/06/19 10:55:11;;;;;;;7.35;1.77;;;;;;;38.24;28.45;97188.50;5033630;28;20036;-79
2021/06/19 10:58:04;;;;;;;2.80;1.70;;;;;;;38.61;30.01;97196.59;5049947;28;20083;-79
2021/06/19 11:00:41;;;;;;;1.90;1.70;;;;;;;38.74;26.82;97170.00;5049603;28;20045;-79
2021/06/19 11:03:07;;;;;;;2.38;1.90;;;;;;;38.47;27.08;97170.34;5049643;28;20112;-79
2021/06/19 11:05:45;;;;;;;1.77;1.65;;;;;;;38.83;26.60;97177.56;5032877;28;20160;-79
2021/06/19 11:08:16;;;;;;;3.75;1.95;;;;;;;38.11;28.32;97151.88;5034405;28;20160;-79
2021/06/19 11:10:44;;;;;;;3.05;2.20;;;;;;;38.37;28.82;97175.94;5032994;28;20022;-78
2021/06/19 11:13:28;;;;;;;2.05;1.70;;;;;;;39.08;29.36;97190.63;5033956;28;20116;-79
2021/06/19 11:15:58;;;;;;;4.72;2.20;;;;;;;39.16;27.63;97176.06;5049645;28;20029;-78
2021/06/19 11:18:49;;;;;;;6.72;1.88;;;;;;;38.19;27.67;97162.50;5032914;28;20033;-78
2021/06/19 11:21:19;;;;;;;1.63;1.52;;;;;;;39.43;25.32;97172.88;5033733;28;20036;-78
2021/06/19 11:24:04;;;;;;;1.80;1.70;;;;;;;39.81;27.57;97171.28;5033015;28;20069;-79
2021/06/19 11:26:59;;;;;;;2.08;1.58;;;;;;;38.17;29.22;97170.34;5033904;28;20033;-77
2021/06/19 11:29:34;;;;;;;3.97;2.00;;;;;;;39.22;28.86;97182.47;5032664;28;20041;-79
2021/06/19 11:32:22;;;;;;;5.80;2.00;;;;;;;39.12;28.03;97174.09;5033777;28;20040;-79